Time;durP1;ratioP1;P1;durP2;ratioP2;P2;SDS_P1;SDS_P2;PMS_P1;PMS_P2;Temp;Humidity;BMP_temperature;BMP_pressure;BME280_temperature;BME280_humidity;BME280_pressure;Samples;Min_cycle;Max_cycle;Signal;HPM_P1;HPM_P2
2023/11/24 00:02:54;603684.00;2.01;1040.58;0.00;0.00;0.62;;;;;10.10;1.00;;;;;;2511284;55;3526;31
2023/11/24 00:52:52;319157.00;1.06;550.85;0.00;0.00;0.62;;;;;10.40;1.00;;;;;;2506110;55;3719;31
2023/11/24 01:24:37;54682.00;0.18;95.28;0.00;0.00;0.62;;;;;9.70;1.60;;;;;;2278753;61;1388;-92
2023/11/24 01:42:05;670971.00;2.24;1156.93;0.00;0.00;0.62;;;;;10.30;1.00;;;;;;2512279;55;3653;31
2023/11/24 01:47:06;383289.00;1.28;661.08;0.00;0.00;0.62;;;;;10.60;1.00;;;;;;2512700;40;3355;31
2023/11/24 03:15:43;417298.00;1.39;719.54;0.00;0.00;0.62;;;;;10.30;2.70;;;;;;2278822;61;1954;-89
2023/11/24 04:17:58;1242154.00;4.14;2166.62;114272.00;0.38;198.20;;;;;10.30;4.00;;;;;;2278569;61;1291;-89
2023/11/24 04:20:25;787663.00;2.63;1359.62;106221.00;0.35;184.31;;;;;10.30;4.30;;;;;;2276944;61;1573;-87
2023/11/24 04:25:22;946272.00;3.15;1637.54;51655.00;0.17;90.05;;;;;10.00;6.50;;;;;;2278421;61;1343;-88
2023/11/24 04:27:49;878333.00;2.93;1518.10;114126.00;0.38;197.95;;;;;9.90;8.50;;;;;;2276928;61;1698;-88
2023/11/24 05:02:58;832214.00;2.77;1437.36;112631.00;0.38;195.37;;;;;9.80;10.70;;;;;;2511821;40;3434;31
2023/11/24 05:25:24;678677.00;2.26;1170.28;0.00;0.00;0.62;;;;;10.20;7.50;;;;;;821722;56;3553;-87
2023/11/24 05:35:22;351226.00;1.17;605.97;0.00;0.00;0.62;;;;;9.60;10.60;;;;;;2274782;61;1245;-89
2023/11/24 05:45:53;449030.00;1.50;774.11;0.00;0.00;0.62;;;;;9.80;10.70;;;;;;2481731;39;3648;31
2023/11/24 06:18:27;1009730.00;3.37;1749.71;86603.00;0.29;150.44;;;;;11.40;1.00;;;;;;2307636;40;3444;-89
2023/11/24 06:25:58;1257670.00;4.19;2194.84;24732.00;0.08;43.46;;;;;9.80;2.70;;;;;;2320878;40;3506;-88
2023/11/24 07:03:18;839342.00;2.80;1449.82;0.00;0.00;0.62;;;;;9.90;2.50;;;;;;2336513;40;3475;-89
2023/11/24 07:05:46;23403.00;0.08;41.16;0.00;0.00;0.62;;;;;10.40;1.00;;;;;;2273199;61;1447;-87
2023/11/24 07:08:16;25288.00;0.08;44.43;0.00;0.00;0.62;;;;;10.10;1.00;;;;;;2273257;61;1754;-90
2023/11/24 07:13:12;127353.00;0.42;220.76;0.00;0.00;0.62;;;;;8.90;8.10;;;;;;2262434;61;1412;-86
2023/11/24 07:18:09;308481.00;1.03;532.50;0.00;0.00;0.62;;;;;9.60;4.10;;;;;;2269957;61;1341;-88
2023/11/24 07:23:05;714459.00;2.38;1232.32;9722.00;0.03;17.47;;;;;10.60;1.20;;;;;;2262898;61;1302;-89
2023/11/24 07:25:32;15797.00;0.05;27.99;0.00;0.00;0.62;;;;;11.00;1.00;;;;;;2261043;61;1939;-86
2023/11/24 07:27:58;42700.00;0.14;74.56;0.00;0.00;0.62;;;;;10.70;1.00;;;;;;2261098;61;1111;-89
2023/11/24 07:30:26;204386.00;0.68;353.47;0.00;0.00;0.62;;;;;10.70;1.00;;;;;;2261106;61;1661;-86
2023/11/24 07:32:53;0.00;0.00;0.62;0.00;0.00;0.62;;;;;10.90;1.00;;;;;;2261110;61;962;-87
2023/11/24 07:35:20;72062.00;0.24;125.32;0.00;0.00;0.62;;;;;10.80;1.00;;;;;;2260362;61;1265;-88
2023/11/24 07:37:47;0.00;0.00;0.62;0.00;0.00;0.62;;;;;11.00;1.00;;;;;;2260452;61;1018;-88
2023/11/24 07:40:16;93338.00;0.31;162.07;0.00;0.00;0.62;;;;;10.70;1.00;;;;;;2260363;61;2163;-87
2023/11/24 08:00:24;832313.00;2.77;1437.54;13576.00;0.05;24.14;;;;;10.50;1.00;;;;;;1967262;40;3409;-90
2023/11/24 08:18:05;831694.00;2.77;1436.46;0.00;0.00;0.62;;;;;11.40;1.00;;;;;;1998009;40;3577;-87
2023/11/24 08:48:05;287437.00;0.96;496.32;0.00;0.00;0.62;;;;;10.40;1.20;;;;;;2277880;55;3614;-87
2023/11/24 09:33:25;654404.00;2.18;1128.26;0.00;0.00;0.62;;;;;10.90;1.00;;;;;;2317528;55;3623;-85
2023/11/24 09:35:53;470126.00;1.57;810.41;24690.00;0.08;43.39;;;;;10.90;1.00;;;;;;2272048;61;1357;-85
2023/11/24 09:38:19;271327.00;0.90;468.63;0.00;0.00;0.62;;;;;10.70;1.00;;;;;;2272053;61;1716;-84
2023/11/24 09:40:47;351790.00;1.17;606.94;24762.00;0.08;43.52;;;;;10.90;1.00;;;;;;2272204;61;900;-86
2023/11/24 09:43:14;550103.00;1.83;948.14;16484.00;0.05;29.18;;;;;11.10;1.00;;;;;;2272152;61;2157;-85
2023/11/24 09:45:41;605387.00;2.02;1043.52;23207.00;0.08;40.82;;;;;11.20;1.00;;;;;;2272072;61;2004;-84
2023/11/24 09:48:11;470610.00;1.57;811.24;42315.00;0.14;73.89;;;;;11.60;1.00;;;;;;2272164;61;1019;-85
2023/11/24 09:50:43;464613.00;1.55;800.92;0.00;0.00;0.62;;;;;12.00;1.00;;;;;;2272203;61;1088;-84
2023/11/24 09:53:15;501236.00;1.67;863.95;18959.00;0.06;33.47;;;;;12.00;1.00;;;;;;2272144;61;1130;-84
2023/11/24 09:55:42;407350.00;1.36;702.44;21340.00;0.07;37.59;;;;;12.30;1.00;;;;;;2272071;61;1462;-85
2023/11/24 09:58:09;332963.00;1.11;574.58;0.00;0.00;0.62;;;;;12.20;1.00;;;;;;2272044;61;1066;-85
2023/11/24 10:00:36;275817.00;0.92;476.35;0.00;0.00;0.62;;;;;12.30;1.00;;;;;;2272125;61;1058;-85
2023/11/24 10:03:08;292432.00;0.97;504.91;0.00;0.00;0.62;;;;;12.50;1.00;;;;;;2272158;61;1030;-85
2023/11/24 10:05:35;554105.00;1.85;955.04;34745.00;0.12;60.80;;;;;12.50;1.00;;;;;;2272041;61;1990;-86
2023/11/24 10:08:03;434314.00;1.45;748.80;0.00;0.00;0.62;;;;;12.50;1.00;;;;;;2272144;61;1106;-85
2023/11/24 10:10:30;214408.00;0.71;370.72;0.00;0.00;0.62;;;;;12.70;1.00;;;;;;2272097;61;1141;-86
2023/11/24 10:12:59;194942.00;0.65;337.22;0.00;0.00;0.62;;;;;12.90;1.00;;;;;;2272112;61;1083;-86
2023/11/24 10:15:26;593499.00;1.98;1023.00;116467.00;0.39;201.99;;;;;12.40;1.00;;;;;;2272033;61;1399;-85
2023/11/24 10:17:53;274179.00;0.91;473.53;0.00;0.00;0.62;;;;;12.20;1.00;;;;;;2272088;61;1023;-85
2023/11/24 10:20:22;446473.00;1.49;769.72;46445.00;0.15;81.04;;;;;11.80;1.00;;;;;;2271911;61;1082;-86
2023/11/24 10:22:49;154946.00;0.52;268.33;17617.00;0.06;31.14;;;;;12.20;1.00;;;;;;2272010;61;2339;-86
2023/11/24 10:25:22;508737.00;1.70;876.87;40893.00;0.14;71.43;;;;;12.50;1.00;;;;;;2271981;61;2004;-85
2023/11/24 10:27:49;408187.00;1.36;703.88;0.00;0.00;0.62;;;;;12.40;1.00;;;;;;2272127;61;1110;-86
2023/11/24 10:30:18;309315.00;1.03;533.93;44423.00;0.15;77.54;;;;;12.50;1.00;;;;;;2272087;61;1118;-84
2023/11/24 10:32:48;309015.00;1.03;533.42;0.00;0.00;0.62;;;;;12.50;1.00;;;;;;2272552;61;1106;-85
2023/11/24 10:35:15;366764.00;1.22;632.67;6581.00;0.02;12.03;;;;;12.70;1.00;;;;;;2272730;61;1367;-85
2023/11/24 10:37:42;341575.00;1.14;589.38;0.00;0.00;0.62;;;;;12.80;1.00;;;;;;2272672;61;2222;-85
2023/11/24 10:40:14;432844.00;1.44;746.28;16924.00;0.06;29.94;;;;;11.90;1.00;;;;;;2282371;40;3614;-85
2023/11/24 10:42:47;208473.00;0.69;360.51;41237.00;0.14;72.03;;;;;11.40;1.00;;;;;;2272666;61;1130;-85
2023/11/24 10:45:18;773162.00;2.58;1334.36;0.00;0.00;0.62;;;;;11.30;1.00;;;;;;2272626;61;1915;-84
2023/11/24 10:47:58;667912.00;2.23;1151.64;91611.00;0.31;159.09;;;;;11.60;1.00;;;;;;2272754;61;1110;-84
2023/11/24 10:50:27;508724.00;1.70;876.84;0.00;0.00;0.62;;;;;11.80;1.00;;;;;;2272626;61;1038;-84
2023/11/24 10:53:06;725406.00;2.42;1251.32;0.00;0.00;0.62;;;;;11.80;1.00;;;;;;2272587;61;1131;-84
2023/11/24 10:55:36;380838.00;1.27;656.87;0.00;0.00;0.62;;;;;11.80;1.00;;;;;;2272697;61;1373;-84
2023/11/24 10:58:07;750001.00;2.50;1294.06;51712.00;0.17;90.15;;;;;11.70;1.00;;;;;;2272512;61;1202;-85
2023/11/24 11:00:36;729475.00;2.43;1258.39;45070.00;0.15;78.66;;;;;11.80;1.00;;;;;;2272693;61;1106;-85
2023/11/24 11:03:05;814466.00;2.71;1406.36;23194.00;0.08;40.80;;;;;11.60;1.00;;;;;;2272716;61;1220;-84
2023/11/24 11:05:45;710406.00;2.37;1225.29;47170.00;0.16;82.29;;;;;10.80;1.00;;;;;;2272636;61;1911;-85
2023/11/24 11:08:19;952759.00;3.18;1648.98;77867.00;0.26;135.35;;;;;10.60;1.00;;;;;;2272504;61;1062;-84
2023/11/24 11:11:05;1054997.00;3.52;1830.13;68580.00;0.23;119.31;;;;;10.60;1.00;;;;;;2272643;61;1118;-84
2023/11/24 11:13:37;856156.00;2.85;1479.24;21212.00;0.07;37.37;;;;;10.80;1.00;;;;;;2272556;61;1046;-84
2023/11/24 11:16:09;1190104.00;3.97;2072.34;119765.00;0.40;207.68;;;;;10.70;1.00;;;;;;2272468;61;1284;-85
2023/11/24 11:18:36;918312.00;3.06;1588.30;105480.00;0.35;183.03;;;;;11.00;1.00;;;;;;2272661;61;1034;-84
2023/11/24 11:21:11;633460.00;2.11;1092.03;145989.00;0.49;252.89;;;;;11.00;1.00;;;;;;2272620;61;1114;-84
2023/11/24 11:23:38;278756.00;0.93;481.40;73270.00;0.24;127.41;;;;;10.70;1.00;;;;;;2272644;61;1047;-84
2023/11/24 11:26:06;197617.00;0.66;341.82;89007.00;0.30;154.59;;;;;10.10;1.00;;;;;;2272582;61;2019;-84
2023/11/24 11:28:37;240390.00;0.80;415.42;87846.00;0.29;152.59;;;;;10.00;1.00;;;;;;2272644;61;1080;-84
2023/11/24 11:31:37;241322.00;0.80;417.03;89178.00;0.30;154.89;;;;;10.10;1.00;;;;;;2272603;61;1108;-85
2023/11/24 11:34:16;793817.00;2.65;1370.34;17215.00;0.06;30.45;;;;;10.00;1.00;;;;;;2272607;61;1260;-84
2023/11/24 11:37:11;816793.00;2.72;1410.43;97370.00;0.32;169.03;;;;;10.20;1.00;;;;;;2272596;61;1133;-84
2023/11/24 11:39:43;42859.00;0.14;74.83;0.00;0.00;0.62;;;;;10.40;1.00;;;;;;2272316;61;1172;-84
2023/11/24 11:42:11;70482.00;0.23;122.59;0.00;0.00;0.62;;;;;10.20;1.00;;;;;;2272574;61;1006;-86
2023/11/24 11:44:46;161468.00;0.54;279.57;0.00;0.00;0.62;;;;;9.90;1.00;;;;;;2272452;61;1920;-84
2023/11/24 11:47:20;313664.00;1.05;541.41;23911.00;0.08;42.04;;;;;9.60;1.00;;;;;;2272545;61;1126;-85
2023/11/24 11:49:51;224495.00;0.75;388.08;9929.00;0.03;17.83;;;;;9.60;1.00;;;;;;2272383;61;2135;-84
2023/11/24 11:52:19;481618.00;1.61;830.18;66208.00;0.22;115.21;;;;;9.80;1.00;;;;;;2272572;61;1106;-85
2023/11/24 11:54:47;629502.00;2.10;1085.19;64829.00;0.22;112.82;;;;;9.90;1.00;;;;;;2272493;61;1387;-86
2023/11/24 11:57:14;1051222.00;3.50;1823.41;161555.00;0.54;279.72;;;;;10.00;1.00;;;;;;2272527;61;1282;-85
2023/11/24 11:59:42;533789.00;1.78;920.02;12007.00;0.04;21.43;;;;;10.40;1.00;;;;;;2272523;61;906;-84
2023/11/24 12:02:11;952353.00;3.17;1648.26;22387.00;0.07;39.40;;;;;10.80;1.00;;;;;;2272325;61;1123;-85
2023/11/24 12:04:39;403979.00;1.35;696.65;0.00;0.00;0.62;;;;;11.10;1.00;;;;;;2272242;61;1928;-85
2023/11/24 12:07:09;365366.00;1.22;630.27;0.00;0.00;0.62;;;;;11.00;1.00;;;;;;2272467;61;1102;-85
2023/11/24 12:09:35;486668.00;1.62;838.87;0.00;0.00;0.62;;;;;11.50;1.00;;;;;;2272408;61;1114;-85
2023/11/24 12:12:03;444614.00;1.48;766.52;31036.00;0.10;54.38;;;;;12.00;1.00;;;;;;2272418;61;1047;-85
2023/11/24 12:14:29;600357.00;2.00;1034.84;91863.00;0.31;159.52;;;;;11.90;1.00;;;;;;2272312;61;1610;-85
2023/11/24 12:16:58;559907.00;1.87;965.04;30942.00;0.10;54.21;;;;;11.60;1.00;;;;;;2272411;61;890;-84
2023/11/24 12:19:30;811282.00;2.70;1400.81;0.00;0.00;0.62;;;;;11.10;1.00;;;;;;2272412;61;1032;-85
2023/11/24 12:22:00;1025035.00;3.42;1776.86;24630.00;0.08;43.29;;;;;10.80;1.00;;;;;;2272447;61;1080;-85
2023/11/24 12:24:29;329909.00;1.10;569.33;0.00;0.00;0.62;;;;;10.40;1.00;;;;;;2272328;61;2006;-86
2023/11/24 12:26:57;623831.00;2.08;1075.39;30869.00;0.10;54.09;;;;;10.20;1.00;;;;;;2272421;61;1593;-86
2023/11/24 12:29:26;616448.00;2.05;1062.63;5249.00;0.02;9.72;;;;;10.10;1.00;;;;;;2272366;61;1110;-85
2023/11/24 12:31:54;482600.00;1.61;831.87;0.00;0.00;0.62;;;;;10.10;1.00;;;;;;2272430;61;1110;-85
2023/11/24 12:34:23;293373.00;0.98;506.53;34955.00;0.12;61.16;;;;;10.10;1.00;;;;;;2272241;61;1563;-85
2023/11/24 12:36:53;341732.00;1.14;589.65;0.00;0.00;0.62;;;;;10.30;1.00;;;;;;2272377;61;1056;-84
2023/11/24 12:39:20;317280.00;1.06;547.62;0.00;0.00;0.62;;;;;10.40;1.00;;;;;;2272263;61;1022;-86
2023/11/24 12:41:47;276936.00;0.92;478.27;0.00;0.00;0.62;;;;;10.90;1.00;;;;;;2272255;61;1668;-87
2023/11/24 12:44:14;445662.00;1.49;768.32;451.00;0.00;1.40;;;;;11.00;1.00;;;;;;2272295;61;1380;-86
2023/11/24 12:46:41;377232.00;1.26;650.67;0.00;0.00;0.62;;;;;11.00;1.00;;;;;;2272299;61;2009;-85
2023/11/24 12:49:10;504030.00;1.68;868.76;0.00;0.00;0.62;;;;;11.00;1.00;;;;;;2272250;61;1097;-85
2023/11/24 12:51:43;478624.00;1.60;825.03;87194.00;0.29;151.46;;;;;10.60;1.00;;;;;;2272317;61;1055;-84
2023/11/24 12:54:12;345377.00;1.15;595.92;80617.00;0.27;140.10;;;;;10.50;1.00;;;;;;2272101;61;1371;-84
2023/11/24 12:56:38;302880.00;1.01;522.87;90665.00;0.30;157.46;;;;;10.60;1.00;;;;;;2272290;61;1023;-84
2023/11/24 12:59:10;292719.00;0.98;505.40;79785.00;0.27;138.67;;;;;10.90;1.00;;;;;;2272262;61;1091;-85
2023/11/24 13:01:38;495837.00;1.65;854.66;127889.00;0.43;221.69;;;;;11.00;1.00;;;;;;2272205;61;1136;-84
2023/11/24 13:04:08;596921.00;1.99;1028.90;125637.00;0.42;217.81;;;;;11.10;1.00;;;;;;2272314;61;1161;-85
2023/11/24 13:06:35;120076344.00;400.25;70133816.00;84130.00;0.28;146.17;;;;;11.20;1.00;;;;;;2272040;61;2034;-84
2023/11/24 13:09:09;404338.00;1.35;697.26;89670.00;0.30;155.74;;;;;10.70;1.00;;;;;;2272283;61;942;-85
2023/11/24 13:11:36;742373.00;2.47;1280.80;136031.00;0.45;235.73;;;;;9.50;1.00;;;;;;2272336;61;954;-88
2023/11/24 13:14:03;591745.00;1.97;1019.97;104152.00;0.35;180.74;;;;;8.80;1.00;;;;;;2272127;61;1773;-87
2023/11/24 13:16:30;602115.00;2.01;1037.87;145744.00;0.49;252.47;;;;;9.00;1.00;;;;;;2272223;61;1253;-88
2023/11/24 13:18:57;641141.00;2.14;1105.31;120020.00;0.40;208.12;;;;;9.00;1.00;;;;;;2272312;61;1036;-87
2023/11/24 13:21:25;368976.00;1.23;636.48;93849.00;0.31;162.95;;;;;9.10;1.00;;;;;;2272226;61;1136;-86
2023/11/24 13:23:52;396026.00;1.32;682.97;88470.00;0.29;153.67;;;;;8.90;1.00;;;;;;2272271;61;1085;-88
2023/11/24 13:26:20;441928.00;1.47;761.90;94595.00;0.32;164.24;;;;;9.00;1.00;;;;;;2272245;61;2000;-87
2023/11/24 13:28:47;363804.00;1.21;627.59;96285.00;0.32;167.16;;;;;9.20;1.00;;;;;;2272262;61;1592;-87
2023/11/24 13:31:14;607856.00;2.03;1047.79;77770.00;0.26;135.19;;;;;9.30;1.00;;;;;;2272160;61;1541;-87
2023/11/24 13:33:42;480806.00;1.60;828.78;122730.00;0.41;212.79;;;;;9.40;1.00;;;;;;2272208;61;1035;-87
2023/11/24 13:36:10;604434.00;2.01;1041.88;179226.00;0.60;310.16;;;;;9.20;1.00;;;;;;2272206;61;1452;-87
2023/11/24 13:38:39;636387.00;2.12;1097.09;115754.00;0.39;200.76;;;;;9.00;1.00;;;;;;2272040;61;1051;-87
2023/11/24 13:41:06;417674.00;1.39;720.19;87940.00;0.29;152.75;;;;;9.10;1.00;;;;;;2272261;61;1113;-88
2023/11/24 13:43:35;402984.00;1.34;694.93;96367.00;0.32;167.30;;;;;9.00;1.00;;;;;;2272245;61;1098;-89
2023/11/24 13:46:02;388927.00;1.30;670.77;100128.00;0.33;173.79;;;;;9.00;1.00;;;;;;2272049;39;3671;-87
2023/11/24 13:48:29;283329.00;0.94;489.26;39359.00;0.13;68.78;;;;;9.10;1.00;;;;;;2279003;55;3736;-87
2023/11/24 13:50:57;16851.00;0.06;29.82;0.00;0.00;0.62;;;;;9.10;1.00;;;;;;2272217;61;1008;-86
2023/11/24 13:53:24;39620.00;0.13;69.23;0.00;0.00;0.62;;;;;9.30;1.00;;;;;;2272253;61;1070;-88
2023/11/24 13:55:56;118366.00;0.39;205.26;0.00;0.00;0.62;;;;;9.40;1.00;;;;;;2272013;61;1398;-87
2023/11/24 13:58:23;176829.00;0.59;306.03;16632.00;0.06;29.44;;;;;9.40;1.00;;;;;;2272125;61;1112;-87
2023/11/24 14:00:52;168548.00;0.56;291.77;0.00;0.00;0.62;;;;;9.50;1.00;;;;;;2272064;61;973;-87
2023/11/24 14:03:19;144112.00;0.48;249.66;0.00;0.00;0.62;;;;;9.80;1.00;;;;;;2272081;61;2393;-87
2023/11/24 14:05:47;47125.00;0.16;82.21;0.00;0.00;0.62;;;;;9.90;1.00;;;;;;2272412;61;2000;-86
2023/11/24 14:08:15;244170.00;0.81;421.92;0.00;0.00;0.62;;;;;10.00;1.00;;;;;;2272930;61;1083;-86
2023/11/24 14:10:42;219041.00;0.73;378.69;0.00;0.00;0.62;;;;;10.00;1.00;;;;;;2272859;61;1110;-87
2023/11/24 14:13:09;248491.00;0.83;429.36;0.00;0.00;0.62;;;;;9.90;1.00;;;;;;2272848;61;1274;-88
2023/11/24 14:15:36;185853.00;0.62;321.57;33908.00;0.11;59.35;;;;;9.50;1.00;;;;;;2272813;61;1375;-87
2023/11/24 14:18:06;169032.00;0.56;292.60;0.00;0.00;0.62;;;;;9.40;1.00;;;;;;2272867;61;1122;-86
2023/11/24 14:20:33;132957.00;0.44;230.43;39451.00;0.13;68.94;;;;;9.20;1.00;;;;;;2272856;61;1137;-85
2023/11/24 14:23:00;275231.00;0.92;475.34;45225.00;0.15;78.93;;;;;9.40;1.00;;;;;;2272833;61;1013;-86
2023/11/24 14:25:27;154160.00;0.51;266.98;0.00;0.00;0.62;;;;;9.70;1.00;;;;;;2272704;61;1923;-86
2023/11/24 14:27:54;81106.00;0.27;140.95;0.00;0.00;0.62;;;;;9.20;1.00;;;;;;2272784;61;1226;-89
2023/11/24 14:32:51;103361.00;0.34;179.37;0.00;0.00;0.62;;;;;8.10;1.00;;;;;;2262828;61;1398;-87
2023/11/24 14:35:20;249000.00;0.83;430.23;0.00;0.00;0.62;;;;;8.10;1.00;;;;;;2260707;61;1367;-87
2023/11/24 14:37:47;40533.00;0.14;70.81;0.00;0.00;0.62;;;;;8.10;1.00;;;;;;2260663;61;1118;-87
2023/11/24 14:40:15;6421.00;0.02;11.75;0.00;0.00;0.62;;;;;8.20;1.00;;;;;;2260737;61;1042;-87
2023/11/24 14:42:44;210953.00;0.70;364.78;8509.00;0.03;15.37;;;;;8.10;1.00;;;;;;2260616;61;1246;-86
2023/11/24 14:45:15;164261.00;0.55;284.38;0.00;0.00;0.62;;;;;8.20;1.00;;;;;;2260561;61;2014;-87
2023/11/24 14:47:47;87817.00;0.29;152.54;0.00;0.00;0.62;;;;;8.20;1.00;;;;;;2260749;61;1096;-86
2023/11/24 14:50:16;49094.00;0.16;85.62;0.00;0.00;0.62;;;;;8.40;1.00;;;;;;2260667;61;1266;-87
2023/11/24 14:52:45;141823.00;0.47;245.71;21064.00;0.07;37.11;;;;;8.40;1.00;;;;;;2260629;61;1157;-87
2023/11/24 14:55:13;203754.00;0.68;352.39;0.00;0.00;0.62;;;;;8.10;1.00;;;;;;2260627;61;2130;-86
2023/11/24 14:57:40;256167.00;0.85;442.56;0.00;0.00;0.62;;;;;8.30;1.00;;;;;;2260659;61;1060;-87
2023/11/24 15:00:22;285240.00;0.95;492.55;72442.00;0.24;125.98;;;;;8.10;1.00;;;;;;2260598;61;1540;-88
2023/11/24 15:02:49;680484.00;2.27;1173.41;166486.00;0.55;288.21;;;;;8.10;1.00;;;;;;2260557;61;1616;-86
2023/11/24 15:05:17;485426.00;1.62;836.74;133163.00;0.44;230.78;;;;;8.40;1.00;;;;;;2260524;61;2177;-87
2023/11/24 15:07:46;219463.00;0.73;379.42;69140.00;0.23;120.27;;;;;8.10;1.00;;;;;;2260527;61;2440;-87
2023/11/24 15:10:14;392122.00;1.31;676.26;118362.00;0.39;205.26;;;;;7.80;1.00;;;;;;2260603;61;1619;-86
2023/11/24 15:12:43;220703.00;0.74;381.55;0.00;0.00;0.62;;;;;7.40;1.00;;;;;;2260413;61;1085;-87
2023/11/24 15:25:17;179515.00;0.60;310.65;0.00;0.00;0.62;;;;;8.00;1.00;;;;;;1568676;40;3414;-87
2023/11/24 15:30:20;366697.00;1.22;632.56;0.00;0.00;0.62;;;;;8.50;1.00;;;;;;2274315;55;3758;-87
2023/11/24 15:35:21;284957.00;0.95;492.06;0.00;0.00;0.62;;;;;8.70;1.00;;;;;;2262320;61;1414;-87
2023/11/24 15:37:48;170972.00;0.57;295.94;0.00;0.00;0.62;;;;;8.70;1.00;;;;;;2260324;61;1746;-88
2023/11/24 15:42:47;297413.00;0.99;513.47;0.00;0.00;0.62;;;;;8.40;1.00;;;;;;2265853;61;1425;-87
2023/11/24 15:45:15;260000.00;0.87;449.15;0.00;0.00;0.62;;;;;8.40;1.00;;;;;;2264362;61;1559;-87
2023/11/24 15:47:47;263563.00;0.88;455.28;0.00;0.00;0.62;;;;;8.50;1.00;;;;;;2264362;61;2001;-86
2023/11/24 16:38:08;1150889.00;3.84;2001.67;97374.00;0.32;169.04;;;;;4.40;8.30;;;;;;2262425;61;1317;-91
2023/11/24 16:40:35;936692.00;3.12;1620.66;132340.00;0.44;229.36;;;;;4.90;7.90;;;;;;2260918;61;1165;-90
2023/11/24 16:43:02;984449.00;3.28;1704.95;88411.00;0.29;153.56;;;;;5.10;5.10;;;;;;2260635;61;1658;-87
2023/11/24 17:25:54;836034.00;2.79;1444.04;0.00;0.00;0.62;;;;;6.90;1.00;;;;;;2501268;55;3561;31
2023/11/24 19:08:17;518828.00;1.73;894.25;89939.00;0.30;156.20;;;;;5.40;1.00;;;;;;2311877;39;3678;-87
2023/11/24 19:10:44;390686.00;1.30;673.79;92435.00;0.31;160.51;;;;;5.60;1.00;;;;;;2300306;40;3591;-87
2023/11/24 19:18:13;687189.00;2.29;1185.03;94284.00;0.31;163.70;;;;;5.40;1.00;;;;;;797706;56;3565;-88
2023/11/24 19:25:42;720077.00;2.40;1242.07;108548.00;0.36;188.32;;;;;5.70;1.00;;;;;;2270075;61;1900;-87
2023/11/24 19:30:43;932955.00;3.11;1614.07;97320.00;0.32;168.95;;;;;5.70;1.00;;;;;;2289503;40;3442;-85
2023/11/24 19:38:18;548344.00;1.83;945.10;0.00;0.00;0.62;;;;;6.10;1.00;;;;;;2263094;61;1330;-87
2023/11/24 19:46:38;185686.00;0.62;321.28;0.00;0.00;0.62;;;;;6.20;1.00;;;;;;2275280;40;3685;-88
2023/11/24 19:49:05;16634.00;0.06;29.44;0.00;0.00;0.62;;;;;6.00;1.00;;;;;;2342703;56;3757;-89
2023/11/24 19:51:33;219230.00;0.73;379.02;0.00;0.00;0.62;;;;;5.70;1.00;;;;;;2311084;56;3852;-88
2023/11/24 19:56:32;338513.00;1.13;584.12;0.00;0.00;0.62;;;;;5.30;1.00;;;;;;2284992;40;3461;-88
2023/11/24 19:58:59;83125.00;0.28;144.43;0.00;0.00;0.62;;;;;5.20;1.00;;;;;;2330061;40;3739;-87
2023/11/24 20:06:29;404101.00;1.35;696.86;0.00;0.00;0.62;;;;;5.60;1.00;;;;;;2296443;40;3732;-88
2023/11/24 20:08:58;84833.00;0.28;147.38;0.00;0.00;0.62;;;;;5.90;1.00;;;;;;2288507;55;3712;-89
2023/11/24 20:11:25;238017.00;0.79;411.34;0.00;0.00;0.62;;;;;5.70;1.00;;;;;;2301193;56;3734;-86
2023/11/24 20:13:52;298202.00;0.99;514.83;32253.00;0.11;56.48;;;;;5.80;1.00;;;;;;2283375;40;3606;-87
2023/11/24 20:31:43;231576.00;0.77;400.26;0.00;0.00;0.62;;;;;5.60;1.00;;;;;;2043992;40;3399;-88
2023/11/24 20:39:18;177885.00;0.59;307.85;0.00;0.00;0.62;;;;;5.60;1.00;;;;;;2036909;60;1697;-87
2023/11/24 20:44:27;368614.00;1.23;635.85;23114.00;0.08;40.66;;;;;5.90;1.00;;;;;;2041126;60;1781;-87
2023/11/24 20:49:39;139695.00;0.47;242.05;0.00;0.00;0.62;;;;;6.50;1.00;;;;;;1905848;40;3422;-87
2023/11/24 20:52:07;195303.00;0.65;337.84;17095.00;0.06;30.24;;;;;6.30;1.00;;;;;;2267874;61;1703;-88
2023/11/24 20:54:34;44418.00;0.15;77.53;0.00;0.00;0.62;;;;;6.40;1.00;;;;;;2267898;61;1363;-87
2023/11/24 20:57:04;345657.00;1.15;596.40;10349.00;0.03;18.55;;;;;6.10;1.00;;;;;;2300850;56;3714;-86
2023/11/24 20:59:34;239584.00;0.80;414.04;32932.00;0.11;57.66;;;;;6.10;1.00;;;;;;2308718;56;3726;-87
2023/11/24 22:37:33;176179.00;0.59;304.91;0.00;0.00;0.62;;;;;5.90;1.00;;;;;;2274912;61;1177;-89
2023/11/24 22:40:00;97104.00;0.32;168.57;0.00;0.00;0.62;;;;;6.00;1.00;;;;;;2273070;61;946;-89
2023/11/24 22:45:09;378852.00;1.26;653.45;0.00;0.00;0.62;;;;;5.80;1.00;;;;;;2269376;61;1368;-87
2023/11/24 22:47:42;168277.00;0.56;291.30;0.00;0.00;0.62;;;;;5.80;1.00;;;;;;2264666;61;1914;-90
2023/11/24 22:50:10;311734.00;1.04;538.09;0.00;0.00;0.62;;;;;6.10;1.00;;;;;;2288534;41;3734;-89
